Time;durP1;ratioP1;P1;durP2;ratioP2;P2;SDS_P1;SDS_P2;PMS_P1;PMS_P2;Temp;Humidity;BMP_temperature;BMP_pressure;BME280_temperature;BME280_humidity;BME280_pressure;Samples;Min_cycle;Max_cycle;Signal;HPM_P1;HPM_P2
2023/03/10 00:01:18;;;;;;;17.50;12.50;;;2.40;99.90;;;;;;5006811;28;20238;-68
2023/03/10 00:03:46;;;;;;;18.83;13.60;;;2.40;99.90;;;;;;5006876;28;20332;-68
2023/03/10 00:06:16;;;;;;;19.77;13.07;;;2.40;99.90;;;;;;5006935;28;20223;-68
2023/03/10 00:08:43;;;;;;;20.63;13.90;;;2.40;99.90;;;;;;5006746;28;20299;-68
2023/03/10 00:11:11;;;;;;;18.60;12.77;;;2.40;99.90;;;;;;5007075;28;20311;-68
2023/03/10 00:13:38;;;;;;;17.83;12.80;;;2.40;99.90;;;;;;5006372;28;20291;-67
2023/03/10 00:16:06;;;;;;;17.27;12.67;;;2.40;99.90;;;;;;5006620;28;20284;-70
2023/03/10 00:18:33;;;;;;;17.83;12.77;;;2.40;99.90;;;;;;5007344;28;20236;-70
2023/03/10 00:21:00;;;;;;;17.47;12.50;;;2.40;99.90;;;;;;5006928;28;20707;-70
2023/03/10 00:23:28;;;;;;;18.43;12.70;;;2.40;99.90;;;;;;5006952;28;20211;-71
2023/03/10 00:25:57;;;;;;;17.93;12.30;;;2.40;99.90;;;;;;5006979;28;20209;-71
2023/03/10 00:28:24;;;;;;;17.03;12.40;;;2.40;99.90;;;;;;5006545;28;20627;-71
2023/03/10 00:30:59;;;;;;;17.37;11.67;;;2.50;99.90;;;;;;5007046;28;20296;-71
2023/03/10 00:33:26;;;;;;;16.43;11.60;;;2.50;99.90;;;;;;5006770;28;20200;-71
2023/03/10 00:36:02;;;;;;;16.57;12.00;;;2.50;99.90;;;;;;5007958;28;20201;-70
2023/03/10 00:38:30;;;;;;;17.60;12.47;;;2.50;99.90;;;;;;5026930;28;20192;-70
2023/03/10 00:41:01;;;;;;;16.53;11.93;;;2.50;99.90;;;;;;5023317;28;20232;-71
2023/03/10 00:43:28;;;;;;;15.40;11.87;;;2.50;99.90;;;;;;5006276;28;20248;-71
2023/03/10 00:45:56;;;;;;;13.30;11.17;;;2.50;99.90;;;;;;5006937;28;20239;-71
2023/03/10 00:48:23;;;;;;;14.03;11.27;;;2.50;99.90;;;;;;5007957;28;20300;-71
2023/03/10 00:50:49;;;;;;;16.00;11.10;;;2.50;99.90;;;;;;5010992;28;20633;-70
2023/03/10 00:53:16;;;;;;;14.43;10.93;;;2.50;99.90;;;;;;5010190;28;20305;-71
2023/03/10 00:55:45;;;;;;;13.77;10.70;;;2.50;99.90;;;;;;5010904;28;20300;-70
2023/03/10 00:58:12;;;;;;;14.80;11.13;;;2.50;99.90;;;;;;5010679;28;20253;-70
2023/03/10 01:00:39;;;;;;;14.40;11.10;;;2.50;99.90;;;;;;5010460;28;20783;-70
2023/03/10 01:03:05;;;;;;;15.53;11.43;;;2.50;99.90;;;;;;5011189;28;20211;-71
2023/03/10 01:05:32;;;;;;;16.03;11.60;;;2.50;99.90;;;;;;5010978;28;20201;-71
2023/03/10 01:07:59;;;;;;;14.77;11.40;;;2.50;99.90;;;;;;5010832;28;20293;-71
2023/03/10 01:10:26;;;;;;;16.30;12.30;;;2.50;99.90;;;;;;5010569;28;20280;-68
2023/03/10 01:12:54;;;;;;;13.03;11.13;;;2.50;99.90;;;;;;5010022;28;20197;-68
2023/03/10 01:15:22;;;;;;;14.97;11.47;;;2.50;99.90;;;;;;5010563;28;20296;-68
2023/03/10 01:17:48;;;;;;;15.30;11.93;;;2.50;99.90;;;;;;5010321;28;20256;-68
2023/03/10 01:20:17;;;;;;;15.80;12.00;;;2.50;99.90;;;;;;5010220;28;20300;-68
2023/03/10 01:22:44;;;;;;;15.93;11.67;;;2.50;99.90;;;;;;5009729;28;20325;-68
2023/03/10 01:25:14;;;;;;;16.53;11.77;;;2.50;99.90;;;;;;5010420;28;20321;-68
2023/03/10 01:27:41;;;;;;;15.03;11.43;;;2.50;99.90;;;;;;5010090;28;20217;-68
2023/03/10 01:30:11;;;;;;;16.80;11.93;;;2.50;99.90;;;;;;5010099;28;20588;-68
2023/03/10 01:32:39;;;;;;;14.97;11.60;;;2.50;99.90;;;;;;5009959;28;20213;-68
2023/03/10 01:35:07;;;;;;;15.77;11.27;;;2.50;99.90;;;;;;5009859;28;20228;-68
2023/03/10 01:37:34;;;;;;;16.97;11.87;;;2.50;99.90;;;;;;5024472;28;20208;-68
2023/03/10 01:40:04;;;;;;;15.17;11.60;;;2.40;99.90;;;;;;5029751;28;20648;-68
2023/03/10 01:42:31;;;;;;;13.63;10.23;;;2.40;99.90;;;;;;5013194;28;20324;-68
2023/03/10 01:45:06;;;;;;;14.90;10.67;;;2.40;99.90;;;;;;5008950;28;20308;-69
2023/03/10 01:47:34;;;;;;;14.73;11.10;;;2.40;99.90;;;;;;5009669;28;20205;-68
2023/03/10 01:50:02;;;;;;;15.50;10.27;;;2.40;99.90;;;;;;5009791;28;20267;-68
2023/03/10 01:52:32;;;;;;;12.67;10.07;;;2.40;99.90;;;;;;5009771;28;20212;-68
2023/03/10 01:55:03;;;;;;;13.90;9.90;;;2.40;99.90;;;;;;5009066;28;20685;-68
2023/03/10 01:57:35;;;;;;;12.43;10.37;;;2.40;99.90;;;;;;5009600;28;20297;-69
2023/03/10 02:00:08;;;;;;;14.03;10.43;;;2.40;99.90;;;;;;5008696;28;20194;-68
2023/03/10 02:02:40;;;;;;;12.00;9.47;;;2.40;99.90;;;;;;5009202;28;20231;-68
2023/03/10 02:05:08;;;;;;;11.77;9.47;;;2.40;99.90;;;;;;5009232;28;20228;-69
2023/03/10 02:07:37;;;;;;;11.10;8.77;;;2.40;99.90;;;;;;5008871;28;20249;-69
2023/03/10 02:10:05;;;;;;;12.77;8.97;;;2.40;99.90;;;;;;5008970;28;20237;-69
2023/03/10 02:12:32;;;;;;;11.73;9.00;;;2.40;99.90;;;;;;5009055;28;20582;-69
2023/03/10 02:14:59;;;;;;;11.60;9.67;;;2.40;99.90;;;;;;5008666;28;20775;-69
2023/03/10 02:17:26;;;;;;;10.73;9.17;;;2.40;99.90;;;;;;5008900;28;20277;-69
2023/03/10 02:20:20;;;;;;;12.23;9.47;;;2.40;99.90;;;;;;5009221;28;20209;-70
2023/03/10 02:22:48;;;;;;;10.77;8.87;;;2.40;99.90;;;;;;5008703;28;20327;-70
2023/03/10 02:25:29;;;;;;;13.10;9.97;;;2.40;99.90;;;;;;5008893;28;20285;-70
2023/03/10 02:27:57;;;;;;;11.47;9.20;;;2.40;99.90;;;;;;5008267;28;20664;-70
2023/03/10 02:30:27;;;;;;;11.97;9.20;;;2.40;99.90;;;;;;5009040;28;20297;-69
2023/03/10 02:32:57;;;;;;;11.00;8.40;;;2.40;99.90;;;;;;5009043;28;20206;-69
2023/03/10 02:35:24;;;;;;;11.67;9.30;;;2.40;99.90;;;;;;5008464;28;20205;-69
2023/03/10 02:37:51;;;;;;;10.60;8.97;;;2.40;99.90;;;;;;5007956;28;20668;-69
2023/03/10 02:40:39;;;;;;;10.87;8.90;;;2.40;99.90;;;;;;5008830;28;20285;-69
2023/03/10 02:43:13;;;;;;;11.47;9.20;;;2.40;99.90;;;;;;4988577;28;20280;-68
2023/03/10 02:45:43;;;;;;;13.43;9.17;;;2.40;99.90;;;;;;5006816;28;20648;-68
2023/03/10 02:48:13;;;;;;;11.37;8.77;;;2.40;99.90;;;;;;5008392;28;20225;-68
2023/03/10 02:50:43;;;;;;;9.80;7.50;;;2.40;99.90;;;;;;5008587;28;20194;-68
2023/03/10 02:53:14;;;;;;;10.70;8.73;;;2.40;99.90;;;;;;5009379;28;20300;-69
2023/03/10 02:55:41;;;;;;;10.03;8.37;;;2.40;99.90;;;;;;5021561;28;20289;-68
2023/03/10 02:58:09;;;;;;;11.40;8.17;;;2.40;99.90;;;;;;5008273;28;20738;-68
2023/03/10 03:00:38;;;;;;;10.10;8.03;;;2.40;99.90;;;;;;5008538;28;20237;-69
2023/03/10 03:03:05;;;;;;;10.70;8.33;;;2.40;99.90;;;;;;5008139;28;20314;-69
2023/03/10 03:05:32;;;;;;;10.83;8.23;;;2.40;99.90;;;;;;5008255;28;20280;-69
2023/03/10 03:07:59;;;;;;;10.33;7.80;;;2.40;99.90;;;;;;5007967;28;20747;-69
2023/03/10 03:10:26;;;;;;;9.77;7.90;;;2.40;99.90;;;;;;5008590;28;20277;-69
2023/03/10 03:12:55;;;;;;;9.40;7.70;;;2.40;99.90;;;;;;5006893;28;20214;-69
2023/03/10 03:15:24;;;;;;;10.57;7.80;;;2.40;99.90;;;;;;5007932;28;20665;-69
2023/03/10 03:17:50;;;;;;;9.00;7.53;;;2.50;99.90;;;;;;5008096;28;20579;-69
2023/03/10 03:20:20;;;;;;;9.20;7.40;;;2.50;99.90;;;;;;5008101;28;20296;-69
2023/03/10 03:22:47;;;;;;;10.30;7.70;;;2.50;99.90;;;;;;5007735;28;20299;-69
2023/03/10 03:25:17;;;;;;;11.97;7.93;;;2.50;99.90;;;;;;5007899;28;20299;-69
2023/03/10 03:27:44;;;;;;;9.10;7.40;;;2.50;99.90;;;;;;5007915;28;20210;-67
2023/03/10 03:30:14;;;;;;;10.37;7.83;;;2.50;99.90;;;;;;5007688;28;20313;-67
2023/03/10 03:32:43;;;;;;;9.20;7.60;;;2.50;99.90;;;;;;5007779;28;20236;-67
2023/03/10 03:35:11;;;;;;;8.50;7.33;;;2.50;99.90;;;;;;5007459;28;20743;-67
2023/03/10 03:37:38;;;;;;;10.50;7.57;;;2.50;99.90;;;;;;5007433;28;20202;-67
2023/03/10 03:40:11;;;;;;;9.97;7.43;;;2.50;99.90;;;;;;5007579;28;20296;-67
2023/03/10 03:42:38;;;;;;;9.63;7.77;;;2.50;99.90;;;;;;5007297;28;20284;-68
2023/03/10 03:45:06;;;;;;;8.30;7.23;;;2.50;99.90;;;;;;5007199;28;20315;-69
2023/03/10 03:47:33;;;;;;;10.10;7.43;;;2.50;99.90;;;;;;5007705;28;20295;-67
2023/03/10 03:50:01;;;;;;;9.27;7.27;;;2.50;99.90;;;;;;5007688;28;20216;-67
2023/03/10 03:52:28;;;;;;;9.10;7.20;;;2.50;99.90;;;;;;5007583;28;20237;-67
2023/03/10 03:54:55;;;;;;;9.00;7.37;;;2.50;99.90;;;;;;5007488;28;20292;-72
2023/03/10 03:57:22;;;;;;;9.03;7.20;;;2.50;99.90;;;;;;5007172;28;20301;-72
2023/03/10 03:59:49;;;;;;;10.07;7.43;;;2.50;99.90;;;;;;5007474;28;20313;-73
2023/03/10 04:02:16;;;;;;;7.30;6.60;;;2.50;99.90;;;;;;5007394;28;20712;-71
2023/03/10 04:04:43;;;;;;;7.67;6.80;;;2.50;99.90;;;;;;5007285;28;20269;-72
2023/03/10 04:07:11;;;;;;;8.43;7.00;;;2.50;99.90;;;;;;5007326;28;20201;-72
2023/03/10 04:09:39;;;;;;;7.90;6.97;;;2.50;99.90;;;;;;5006832;28;20336;-72
2023/03/10 04:12:07;;;;;;;8.60;7.00;;;2.60;99.90;;;;;;5007359;28;20677;-72
2023/03/10 04:14:33;;;;;;;8.47;6.60;;;2.50;99.90;;;;;;5006902;28;20751;-72
2023/03/10 04:17:00;;;;;;;8.00;6.50;;;2.60;99.90;;;;;;5007277;28;20570;-69
2023/03/10 04:19:27;;;;;;;7.23;6.50;;;2.50;99.90;;;;;;5006917;28;20274;-69
2023/03/10 04:21:54;;;;;;;7.40;6.47;;;2.50;99.90;;;;;;5006551;28;20233;-69
2023/03/10 04:24:22;;;;;;;6.87;6.13;;;2.60;99.90;;;;;;5012079;28;20914;-69
2023/03/10 04:26:49;;;;;;;7.23;6.03;;;2.60;99.90;;;;;;5013195;28;20731;-69
2023/03/10 04:29:16;;;;;;;8.10;6.67;;;2.60;99.90;;;;;;5013527;28;20271;-69
2023/03/10 04:31:43;;;;;;;6.43;5.70;;;2.60;99.90;;;;;;5013463;28;20231;-69
2023/03/10 04:34:10;;;;;;;7.13;5.87;;;2.50;99.90;;;;;;5013484;28;20304;-69
2023/03/10 04:36:37;;;;;;;7.57;6.47;;;2.60;99.90;;;;;;5013228;28;20320;-68
2023/03/10 04:39:05;;;;;;;6.80;6.13;;;2.60;99.90;;;;;;5013786;28;20215;-69
2023/03/10 04:41:34;;;;;;;6.93;5.87;;;2.60;99.90;;;;;;5013445;28;20667;-69
2023/03/10 04:44:01;;;;;;;6.47;5.87;;;2.60;99.90;;;;;;5013171;28;20255;-69
2023/03/10 04:46:27;;;;;;;6.30;5.70;;;2.60;99.90;;;;;;5013562;28;20295;-69
2023/03/10 04:48:54;;;;;;;6.70;6.00;;;2.60;99.90;;;;;;5013019;28;20227;-69
2023/03/10 04:51:21;;;;;;;6.27;5.37;;;2.60;99.90;;;;;;5013441;28;20678;-69
2023/03/10 04:53:49;;;;;;;6.50;5.90;;;2.60;99.90;;;;;;5013109;28;20247;-69
2023/03/10 04:56:16;;;;;;;6.97;6.10;;;2.60;99.90;;;;;;5013337;28;20202;-69
2023/03/10 04:58:45;;;;;;;6.43;5.80;;;2.70;99.90;;;;;;5013059;28;20249;-69
2023/03/10 05:01:13;;;;;;;6.77;6.07;;;2.60;99.90;;;;;;5013636;28;20236;-70
2023/03/10 05:03:40;;;;;;;6.87;5.60;;;2.60;99.90;;;;;;5013372;28;20319;-70
2023/03/10 05:06:14;;;;;;;6.67;5.97;;;2.60;99.90;;;;;;5013366;28;20297;-69
2023/03/10 05:08:41;;;;;;;7.40;5.70;;;2.60;99.90;;;;;;5013192;28;20249;-69
2023/03/10 05:11:09;;;;;;;7.27;6.03;;;2.60;99.90;;;;;;5013617;28;20662;-70
2023/03/10 05:13:35;;;;;;;6.63;5.97;;;2.60;99.90;;;;;;5012859;28;20731;-70
2023/03/10 05:16:04;;;;;;;5.93;5.33;;;2.60;99.90;;;;;;5013408;28;20264;-70
2023/03/10 05:18:31;;;;;;;6.33;5.73;;;2.60;99.90;;;;;;5013324;28;20571;-70
2023/03/10 05:20:58;;;;;;;7.20;5.93;;;2.60;99.90;;;;;;5012987;28;20739;-69
2023/03/10 05:23:25;;;;;;;7.30;6.20;;;2.60;99.90;;;;;;5013381;28;20331;-69
2023/03/10 05:25:52;;;;;;;7.07;6.37;;;2.60;99.90;;;;;;5012786;28;20296;-69
2023/03/10 05:28:19;;;;;;;7.03;6.33;;;2.60;99.90;;;;;;5013079;28;20569;-69
2023/03/10 05:30:46;;;;;;;8.00;6.30;;;2.60;99.90;;;;;;5012918;28;20209;-68
2023/03/10 05:33:14;;;;;;;7.23;6.53;;;2.70;99.90;;;;;;5012932;28;20215;-68
2023/03/10 05:35:41;;;;;;;7.17;6.43;;;2.70;99.90;;;;;;5009545;28;20769;-68
2023/03/10 05:38:08;;;;;;;6.67;6.07;;;2.70;99.90;;;;;;5029465;28;20213;-69
2023/03/10 05:40:35;;;;;;;7.23;6.47;;;2.70;99.90;;;;;;5021402;28;20212;-68
2023/03/10 05:43:02;;;;;;;6.53;5.87;;;2.70;99.90;;;;;;5009026;28;20260;-68
2023/03/10 05:45:29;;;;;;;6.30;5.70;;;2.70;99.90;;;;;;5009430;28;20645;-68
2023/03/10 05:47:56;;;;;;;6.43;5.83;;;2.70;99.90;;;;;;5009329;28;20648;-68
2023/03/10 05:50:24;;;;;;;6.80;6.10;;;2.70;99.90;;;;;;5009751;28;20905;-68
2023/03/10 05:52:51;;;;;;;6.30;5.73;;;2.70;99.90;;;;;;5009268;28;20300;-67
2023/03/10 05:55:19;;;;;;;6.80;6.10;;;2.70;99.90;;;;;;5009827;28;20209;-67
2023/03/10 05:57:47;;;;;;;7.83;6.03;;;2.70;99.90;;;;;;5009273;28;20304;-69
2023/03/10 06:00:16;;;;;;;7.10;6.40;;;2.70;99.90;;;;;;5009807;28;20297;-69
2023/03/10 06:02:43;;;;;;;6.67;5.97;;;2.70;99.90;;;;;;5009464;28;20578;-69
2023/03/10 06:05:12;;;;;;;7.10;6.33;;;2.70;99.90;;;;;;5008913;28;20818;-69
2023/03/10 06:07:41;;;;;;;7.10;6.47;;;2.70;99.90;;;;;;5009341;28;20237;-70
2023/03/10 06:10:10;;;;;;;6.97;6.27;;;2.80;99.90;;;;;;5009060;28;20299;-69
2023/03/10 06:12:36;;;;;;;6.57;5.97;;;2.70;99.90;;;;;;5009121;28;20222;-70
2023/03/10 06:15:04;;;;;;;7.27;6.43;;;2.70;99.90;;;;;;5008996;28;20237;-70
2023/03/10 06:17:31;;;;;;;6.37;5.50;;;2.80;99.90;;;;;;5008946;28;20264;-71
2023/03/10 06:19:58;;;;;;;7.07;6.00;;;2.80;99.90;;;;;;5009033;28;20272;-70
2023/03/10 06:22:25;;;;;;;6.47;5.87;;;2.80;99.90;;;;;;5008872;28;20205;-70
2023/03/10 06:24:54;;;;;;;7.10;6.37;;;2.90;99.90;;;;;;5009301;28;20209;-71
2023/03/10 06:27:20;;;;;;;7.37;6.67;;;3.00;99.90;;;;;;5008984;28;20210;-70
2023/03/10 06:29:48;;;;;;;7.50;6.70;;;3.00;99.90;;;;;;5008146;28;20205;-68
2023/03/10 06:32:15;;;;;;;7.07;6.33;;;3.00;99.90;;;;;;5008841;28;20241;-69
2023/03/10 06:34:42;;;;;;;7.03;6.43;;;3.10;99.90;;;;;;5008520;28;20289;-69
2023/03/10 06:37:09;;;;;;;7.07;6.37;;;3.00;99.90;;;;;;5008464;28;20288;-69
2023/03/10 06:39:38;;;;;;;7.10;6.30;;;3.00;99.90;;;;;;5008656;28;20201;-69
2023/03/10 06:42:07;;;;;;;7.03;6.30;;;3.00;99.90;;;;;;5008804;28;20209;-69
2023/03/10 06:44:35;;;;;;;7.13;6.43;;;3.00;99.90;;;;;;5008453;28;20237;-69
2023/03/10 06:47:04;;;;;;;7.07;6.37;;;3.00;99.90;;;;;;5008752;28;20209;-69
2023/03/10 06:49:32;;;;;;;7.07;6.37;;;3.00;99.90;;;;;;5009061;28;20220;-71
2023/03/10 06:51:59;;;;;;;6.93;6.33;;;3.00;99.90;;;;;;5008359;28;20855;-70
2023/03/10 06:54:26;;;;;;;6.63;6.03;;;3.00;99.90;;;;;;5008529;28;20260;-71
2023/03/10 06:56:53;;;;;;;7.17;6.57;;;3.00;99.90;;;;;;5008559;28;20292;-70
2023/03/10 06:59:21;;;;;;;7.00;6.30;;;3.00;99.90;;;;;;5008384;28;20325;-69
2023/03/10 07:01:48;;;;;;;7.27;6.23;;;3.00;99.90;;;;;;5008369;28;20672;-69
2023/03/10 07:04:15;;;;;;;8.17;6.70;;;3.00;99.90;;;;;;5008067;28;20704;-70
2023/03/10 07:06:42;;;;;;;7.07;6.37;;;3.00;99.90;;;;;;5008219;28;20209;-70
2023/03/10 07:09:09;;;;;;;7.70;6.40;;;3.00;99.90;;;;;;5008076;28;20243;-70
2023/03/10 07:11:36;;;;;;;6.37;5.80;;;3.00;99.90;;;;;;4999210;28;20301;-68
2023/03/10 07:14:03;;;;;;;7.43;6.70;;;3.10;99.90;;;;;;4987914;28;20737;-68
2023/03/10 07:16:31;;;;;;;7.50;6.43;;;3.00;99.90;;;;;;4991922;28;20225;-68
2023/03/10 07:18:58;;;;;;;6.50;5.93;;;3.10;99.90;;;;;;5007870;28;20253;-70
2023/03/10 07:21:25;;;;;;;7.40;6.70;;;3.00;99.90;;;;;;5007870;28;20211;-69
2023/03/10 07:23:51;;;;;;;7.33;6.70;;;3.10;99.90;;;;;;5007485;28;20241;-69
2023/03/10 07:26:19;;;;;;;7.13;6.43;;;3.10;99.90;;;;;;5007527;28;20213;-68
2023/03/10 07:28:46;;;;;;;6.57;5.97;;;3.10;99.90;;;;;;5007025;28;20268;-69
2023/03/10 07:31:17;;;;;;;6.90;6.30;;;3.20;99.90;;;;;;5007996;28;20300;-69
2023/03/10 07:33:45;;;;;;;7.90;7.10;;;3.20;99.90;;;;;;5005808;28;20291;-68
2023/03/10 07:36:14;;;;;;;7.33;6.63;;;3.20;99.90;;;;;;5005276;28;20734;-68
2023/03/10 07:38:41;;;;;;;7.83;6.83;;;3.20;99.90;;;;;;5007594;28;20205;-68
2023/03/10 07:41:09;;;;;;;7.43;6.67;;;3.20;99.90;;;;;;5007983;28;20300;-68
2023/03/10 07:43:36;;;;;;;8.27;7.37;;;3.20;99.90;;;;;;5007293;28;20292;-68
2023/03/10 07:46:05;;;;;;;7.47;6.77;;;3.30;99.90;;;;;;5007834;28;20252;-68
2023/03/10 07:48:33;;;;;;;8.00;7.20;;;3.30;99.90;;;;;;5007219;28;20217;-68
2023/03/10 07:51:01;;;;;;;8.03;6.90;;;3.30;99.90;;;;;;5007642;28;20248;-67
2023/03/10 07:53:29;;;;;;;7.50;6.80;;;3.30;99.90;;;;;;5007410;28;20305;-67
2023/03/10 07:55:56;;;;;;;8.53;7.20;;;3.30;99.90;;;;;;5007519;28;20209;-67
2023/03/10 07:58:23;;;;;;;8.87;7.97;;;3.40;99.90;;;;;;5006804;28;20252;-67
2023/03/10 08:00:55;;;;;;;8.13;7.33;;;3.40;99.90;;;;;;5007481;28;20240;-67
2023/03/10 08:03:22;;;;;;;9.77;8.03;;;3.40;99.90;;;;;;5007360;28;20222;-67
2023/03/10 08:05:49;;;;;;;9.47;8.47;;;3.40;99.90;;;;;;5007366;28;20301;-67
2023/03/10 08:08:17;;;;;;;11.00;8.50;;;3.50;99.90;;;;;;5007279;28;20320;-69
2023/03/10 08:10:44;;;;;;;8.50;7.63;;;3.40;99.90;;;;;;5007213;28;20277;-67
2023/03/10 08:13:11;;;;;;;9.93;8.00;;;3.50;99.90;;;;;;5006668;28;20259;-68
2023/03/10 08:15:39;;;;;;;9.50;8.50;;;3.60;99.90;;;;;;5007233;28;20271;-68
2023/03/10 08:18:06;;;;;;;8.73;7.83;;;3.60;99.90;;;;;;5007134;28;20316;-69
2023/03/10 08:20:35;;;;;;;8.77;7.93;;;3.60;99.90;;;;;;5007048;28;20296;-70
2023/03/10 08:23:05;;;;;;;8.70;7.67;;;3.70;99.90;;;;;;5006815;28;20244;-69
2023/03/10 08:25:33;;;;;;;9.30;8.17;;;3.70;99.90;;;;;;5007528;28;20202;-69
2023/03/10 08:28:00;;;;;;;8.90;8.00;;;3.70;99.90;;;;;;5006635;28;20205;-69
2023/03/10 08:30:27;;;;;;;9.37;7.70;;;3.70;99.90;;;;;;5007273;28;20723;-68
2023/03/10 08:32:54;;;;;;;9.17;7.83;;;3.70;99.90;;;;;;5006684;28;20205;-68
2023/03/10 08:35:21;;;;;;;8.63;7.73;;;3.70;99.90;;;;;;5006702;28;20272;-68
2023/03/10 08:37:48;;;;;;;10.27;8.17;;;3.80;99.90;;;;;;5023442;28;20292;-69
2023/03/10 08:40:15;;;;;;;10.93;8.40;;;3.80;99.90;;;;;;5027267;28;20292;-68
2023/03/10 08:42:44;;;;;;;10.67;8.80;;;3.90;99.90;;;;;;5008870;28;20309;-68
2023/03/10 08:45:12;;;;;;;9.40;8.27;;;3.90;99.90;;;;;;5006823;28;20273;-69
2023/03/10 08:47:38;;;;;;;9.80;8.33;;;4.00;99.90;;;;;;5005918;28;20206;-73
2023/03/10 08:50:07;;;;;;;9.17;8.20;;;3.90;99.90;;;;;;5005714;28;20304;-70
2023/03/10 08:52:34;;;;;;;11.97;9.17;;;3.90;99.90;;;;;;5004098;28;20377;-69
2023/03/10 08:55:01;;;;;;;9.47;8.47;;;4.00;99.90;;;;;;4991933;28;20322;-69
2023/03/10 08:57:28;;;;;;;8.63;7.80;;;4.00;99.90;;;;;;5000100;28;20234;-70
2023/03/10 08:59:57;;;;;;;9.20;8.20;;;4.00;99.90;;;;;;5003983;28;20201;-69
2023/03/10 09:02:24;;;;;;;10.93;8.37;;;4.10;99.90;;;;;;5004768;28;20334;-69
2023/03/10 09:04:51;;;;;;;9.33;8.33;;;4.10;99.90;;;;;;5004802;28;20633;-69
2023/03/10 09:07:18;;;;;;;9.27;8.30;;;4.20;99.90;;;;;;5004764;28;20206;-69
2023/03/10 09:09:45;;;;;;;11.07;9.13;;;4.30;99.90;;;;;;5004448;28;20879;-70
2023/03/10 09:12:13;;;;;;;11.47;9.40;;;4.40;99.90;;;;;;5008511;28;20213;-70
2023/03/10 09:14:40;;;;;;;9.70;8.70;;;4.40;99.90;;;;;;5008210;28;20680;-69
2023/03/10 09:17:08;;;;;;;12.67;9.60;;;4.40;99.90;;;;;;5008407;28;20225;-69
2023/03/10 09:19:35;;;;;;;10.63;8.60;;;4.50;99.90;;;;;;5007798;28;20620;-70
2023/03/10 09:22:02;;;;;;;10.90;9.60;;;4.60;99.90;;;;;;5008554;28;20305;-70
2023/03/10 09:24:30;;;;;;;12.10;9.83;;;4.60;99.90;;;;;;5007737;28;20272;-70
2023/03/10 09:26:57;;;;;;;12.20;9.83;;;4.70;99.90;;;;;;4991849;28;20230;-70
2023/03/10 09:29:24;;;;;;;14.83;10.03;;;4.70;99.90;;;;;;4989115;28;20593;-69
2023/03/10 09:31:50;;;;;;;15.40;10.53;;;4.70;99.90;;;;;;5001760;28;20301;-70
2023/03/10 09:34:19;;;;;;;12.27;10.10;;;4.70;99.90;;;;;;5008373;28;20296;-69
2023/03/10 09:36:48;;;;;;;12.03;10.17;;;4.70;99.90;;;;;;5013559;28;20609;-69
2023/03/10 09:39:15;;;;;;;12.47;9.93;;;4.80;99.90;;;;;;5008702;28;20300;-69
2023/03/10 09:42:11;;;;;;;11.97;10.37;;;4.90;99.90;;;;;;5002903;28;20209;-69
2023/03/10 09:44:42;;;;;;;11.77;10.57;;;5.00;99.90;;;;;;4997180;28;20239;-69
2023/03/10 09:47:24;;;;;;;12.73;10.50;;;5.10;99.90;;;;;;5007290;28;20200;-69
2023/03/10 09:50:02;;;;;;;13.33;10.97;;;5.00;99.90;;;;;;5007651;28;20300;-70
2023/03/10 09:52:36;;;;;;;12.00;10.80;;;5.00;99.90;;;;;;5007473;28;20197;-69
2023/03/10 09:55:14;;;;;;;12.77;10.57;;;5.00;99.90;;;;;;5007738;28;20201;-69
2023/03/10 09:57:41;;;;;;;12.07;10.23;;;5.00;99.90;;;;;;5007250;28;20657;-69
2023/03/10 10:00:11;;;;;;;10.97;9.87;;;5.00;99.90;;;;;;5007387;28;20302;-70
2023/03/10 10:02:43;;;;;;;13.13;11.13;;;5.10;99.90;;;;;;5007311;28;20193;-69
2023/03/10 10:05:20;;;;;;;12.77;11.17;;;5.10;99.90;;;;;;5007161;28;20320;-70
2023/03/10 10:07:52;;;;;;;13.93;11.57;;;5.10;99.90;;;;;;5007283;28;20589;-70
2023/03/10 10:10:25;;;;;;;13.73;10.73;;;5.20;99.90;;;;;;5007501;28;20234;-70
2023/03/10 10:12:53;;;;;;;12.47;11.20;;;5.20;99.90;;;;;;5007096;28;20303;-70
2023/03/10 10:15:23;;;;;;;13.37;11.97;;;5.20;99.90;;;;;;5006683;28;20268;-70
2023/03/10 10:18:11;;;;;;;12.43;11.30;;;5.30;99.90;;;;;;5007662;28;20224;-70
2023/03/10 10:20:43;;;;;;;12.03;10.83;;;5.30;99.90;;;;;;5006759;28;20198;-70
2023/03/10 10:23:19;;;;;;;12.20;11.00;;;5.40;99.90;;;;;;5006897;28;20209;-70
2023/03/10 10:25:46;;;;;;;13.17;11.77;;;5.40;99.90;;;;;;5006833;28;20225;-70
2023/03/10 10:28:21;;;;;;;13.10;11.80;;;5.50;99.90;;;;;;5006787;28;20233;-70
2023/03/10 10:30:48;;;;;;;12.07;10.57;;;5.50;99.90;;;;;;5006853;28;20284;-70
2023/03/10 10:33:16;;;;;;;13.53;12.10;;;5.50;99.90;;;;;;5006430;28;20201;-70
2023/03/10 10:35:58;;;;;;;13.90;11.20;;;5.50;99.90;;;;;;5006464;28;20214;-70
2023/03/10 10:38:28;;;;;;;11.43;10.33;;;5.60;99.90;;;;;;4987380;28;20329;-71
2023/03/10 10:41:01;;;;;;;14.60;10.87;;;5.60;99.90;;;;;;4990156;28;20755;-70
2023/03/10 10:43:29;;;;;;;14.87;11.40;;;5.60;99.90;;;;;;5006403;28;20707;-70
2023/03/10 10:45:58;;;;;;;12.63;10.50;;;5.70;99.90;;;;;;5006314;28;20700;-70
2023/03/10 10:48:39;;;;;;;13.60;11.77;;;5.70;99.90;;;;;;5006839;28;20308;-70
2023/03/10 10:51:20;;;;;;;11.73;10.33;;;5.80;99.90;;;;;;5006496;28;20205;-70
2023/03/10 10:53:48;;;;;;;12.77;10.37;;;5.70;99.90;;;;;;5006260;28;20276;-70
2023/03/10 10:56:16;;;;;;;11.67;10.47;;;5.80;99.90;;;;;;5006760;28;20205;-70
2023/03/10 10:58:45;;;;;;;11.07;9.77;;;5.90;99.90;;;;;;5006363;28;20324;-70
2023/03/10 11:01:14;;;;;;;11.47;10.07;;;6.00;99.90;;;;;;5006491;28;20210;-70
2023/03/10 11:03:43;;;;;;;13.73;10.63;;;6.00;99.90;;;;;;5005436;28;20698;-70
2023/03/10 11:06:23;;;;;;;13.30;11.10;;;6.00;99.90;;;;;;5006368;28;20325;-70
2023/03/10 11:08:51;;;;;;;11.20;10.07;;;6.10;99.90;;;;;;5006112;28;20241;-69
2023/03/10 11:11:29;;;;;;;10.00;9.00;;;6.00;99.90;;;;;;5005926;28;20588;-70
2023/03/10 11:14:12;;;;;;;11.00;9.10;;;6.10;99.90;;;;;;5005757;28;20260;-70
2023/03/10 11:16:48;;;;;;;10.37;9.27;;;6.10;99.90;;;;;;5005486;28;20280;-70
2023/03/10 11:19:24;;;;;;;12.87;9.67;;;6.10;99.90;;;;;;5000348;28;20209;-70
2023/03/10 11:22:00;;;;;;;10.67;8.67;;;6.20;99.90;;;;;;5005139;28;20189;-70
2023/03/10 11:24:34;;;;;;;10.30;8.77;;;6.30;99.90;;;;;;4998924;28;20214;-70
2023/03/10 11:27:09;;;;;;;9.33;8.33;;;6.40;99.90;;;;;;5004836;28;20731;-70
2023/03/10 11:29:56;;;;;;;9.37;8.37;;;6.50;99.90;;;;;;5005048;28;20314;-69
2023/03/10 11:32:32;;;;;;;9.93;8.97;;;6.40;99.90;;;;;;5004941;28;20220;-71
2023/03/10 11:35:02;;;;;;;9.00;8.10;;;6.40;99.90;;;;;;5004508;28;20194;-71
2023/03/10 11:37:38;;;;;;;8.67;7.50;;;6.50;99.90;;;;;;5012917;28;20202;-71
2023/03/10 11:40:18;;;;;;;8.83;7.90;;;6.50;99.90;;;;;;5006053;28;20193;-70
2023/03/10 11:42:51;;;;;;;9.57;8.33;;;6.50;99.90;;;;;;5005261;28;20217;-71
2023/03/10 11:45:26;;;;;;;8.97;7.93;;;6.50;99.90;;;;;;5005468;28;20719;-72
2023/03/10 11:48:03;;;;;;;8.33;7.63;;;6.50;99.90;;;;;;5005541;28;20308;-72
2023/03/10 11:50:37;;;;;;;9.37;7.47;;;6.50;99.90;;;;;;5005758;28;20284;-70
2023/03/10 11:53:13;;;;;;;10.30;7.27;;;6.50;99.90;;;;;;5005588;28;20663;-71
2023/03/10 11:55:42;;;;;;;8.03;7.13;;;6.50;99.90;;;;;;5006009;28;20228;-70
2023/03/10 11:58:21;;;;;;;7.70;7.07;;;6.40;99.90;;;;;;5005543;28;20950;-70
2023/03/10 12:00:49;;;;;;;7.93;7.17;;;6.40;99.90;;;;;;4986766;28;20229;-70
2023/03/10 12:03:21;;;;;;;12.43;11.13;;;6.40;99.90;;;;;;4985752;28;20206;-70
2023/03/10 12:05:51;;;;;;;9.37;8.43;;;6.40;99.90;;;;;;4985476;28;20324;-71
2023/03/10 12:08:24;;;;;;;8.10;7.40;;;6.30;99.90;;;;;;5004631;28;20308;-70
2023/03/10 12:10:54;;;;;;;7.63;6.93;;;6.40;99.90;;;;;;5005439;28;20276;-70
2023/03/10 12:13:26;;;;;;;7.67;6.93;;;6.30;99.90;;;;;;5005243;28;20809;-70
2023/03/10 12:15:58;;;;;;;8.03;7.37;;;6.30;99.90;;;;;;5005954;28;20217;-70
2023/03/10 12:18:25;;;;;;;8.47;7.57;;;6.30;99.90;;;;;;5005885;28;20754;-70
2023/03/10 12:21:17;;;;;;;7.83;7.13;;;6.30;99.90;;;;;;5005873;28;20651;-70
2023/03/10 12:23:47;;;;;;;8.60;7.77;;;6.30;99.90;;;;;;5005640;28;20656;-70
2023/03/10 12:26:15;;;;;;;8.97;8.17;;;6.30;99.90;;;;;;5005395;28;20738;-70
2023/03/10 12:28:42;;;;;;;9.00;8.10;;;6.20;99.90;;;;;;5005048;28;20850;-70
2023/03/10 12:31:11;;;;;;;9.43;8.40;;;6.20;99.90;;;;;;5005272;28;20296;-70
2023/03/10 12:33:52;;;;;;;10.30;8.53;;;6.20;99.90;;;;;;5005075;28;20322;-70
2023/03/10 12:36:31;;;;;;;9.07;8.17;;;6.20;99.90;;;;;;5005320;28;20277;-70
2023/03/10 12:39:01;;;;;;;9.57;8.50;;;6.20;99.90;;;;;;5005066;28;20569;-70
2023/03/10 12:41:48;;;;;;;8.60;7.80;;;6.20;99.90;;;;;;5005551;28;20260;-70
2023/03/10 12:44:48;;;;;;;10.40;7.80;;;6.20;99.90;;;;;;5005875;28;20221;-70
2023/03/10 12:47:29;;;;;;;10.30;9.30;;;6.30;99.90;;;;;;4990009;28;20198;-70
2023/03/10 12:50:02;;;;;;;9.67;8.63;;;6.30;99.90;;;;;;5002380;28;20309;-69
2023/03/10 12:52:46;;;;;;;10.10;9.20;;;6.40;99.90;;;;;;5009199;28;20197;-69
2023/03/10 12:55:21;;;;;;;7.37;6.67;;;6.50;99.90;;;;;;5009124;28;20205;-69
2023/03/10 12:57:58;;;;;;;6.60;5.90;;;6.60;99.90;;;;;;5009005;28;20201;-70
2023/03/10 13:00:35;;;;;;;7.17;6.53;;;6.70;99.90;;;;;;5009434;28;20197;-69
2023/03/10 13:03:11;;;;;;;6.27;5.63;;;6.60;99.90;;;;;;4996476;28;20300;-70